sensor_id;sensor_type;location;lat;lon;timestamp;P1;durP1;ratioP1;P2;durP2;ratioP2
8887;SDS011;4480;52.370;9.748;2023-11-19T00:00:58;1.95;;;1.85;;
8887;SDS011;4480;52.370;9.748;2023-11-19T00:03:25;2.10;;;2.00;;
8887;SDS011;4480;52.370;9.748;2023-11-19T00:05:53;3.40;;;2.08;;
8887;SDS011;4480;52.370;9.748;2023-11-19T00:08:20;1.88;;;1.77;;
8887;SDS011;4480;52.370;9.748;2023-11-19T00:10:49;2.75;;;1.90;;
8887;SDS011;4480;52.370;9.748;2023-11-19T00:13:16;2.10;;;1.85;;
8887;SDS011;4480;52.370;9.748;2023-11-19T00:15:43;1.90;;;1.80;;
8887;SDS011;4480;52.370;9.748;2023-11-19T00:18:12;2.40;;;2.20;;
8887;SDS011;4480;52.370;9.748;2023-11-19T00:20:39;2.03;;;1.83;;
8887;SDS011;4480;52.370;9.748;2023-11-19T00:23:07;2.70;;;2.20;;
8887;SDS011;4480;52.370;9.748;2023-11-19T00:25:34;2.53;;;2.00;;
8887;SDS011;4480;52.370;9.748;2023-11-19T00:28:01;2.25;;;2.00;;
8887;SDS011;4480;52.370;9.748;2023-11-19T00:30:28;1.88;;;1.75;;
8887;SDS011;4480;52.370;9.748;2023-11-19T00:32:56;2.30;;;2.10;;
8887;SDS011;4480;52.370;9.748;2023-11-19T00:35:23;2.47;;;1.80;;
8887;SDS011;4480;52.370;9.748;2023-11-19T00:37:49;1.70;;;1.60;;
8887;SDS011;4480;52.370;9.748;2023-11-19T00:40:18;1.85;;;1.75;;
8887;SDS011;4480;52.370;9.748;2023-11-19T00:42:48;1.85;;;1.65;;
8887;SDS011;4480;52.370;9.748;2023-11-19T00:45:14;1.77;;;1.60;;
8887;SDS011;4480;52.370;9.748;2023-11-19T00:47:41;2.20;;;1.55;;
8887;SDS011;4480;52.370;9.748;2023-11-19T00:50:08;3.22;;;1.85;;
8887;SDS011;4480;52.370;9.748;2023-11-19T00:52:36;1.98;;;1.88;;
8887;SDS011;4480;52.370;9.748;2023-11-19T00:55:03;2.22;;;2.03;;
8887;SDS011;4480;52.370;9.748;2023-11-19T00:57:33;3.13;;;2.42;;
8887;SDS011;4480;52.370;9.748;2023-11-19T01:00:00;2.20;;;2.00;;
8887;SDS011;4480;52.370;9.748;2023-11-19T01:02:31;2.28;;;1.92;;
8887;SDS011;4480;52.370;9.748;2023-11-19T01:04:59;1.90;;;1.80;;
8887;SDS011;4480;52.370;9.748;2023-11-19T01:07:26;4.28;;;1.80;;
8887;SDS011;4480;52.370;9.748;2023-11-19T01:09:53;1.63;;;1.52;;
8887;SDS011;4480;52.370;9.748;2023-11-19T01:12:19;2.10;;;1.90;;
8887;SDS011;4480;52.370;9.748;2023-11-19T01:14:48;2.15;;;1.35;;
8887;SDS011;4480;52.370;9.748;2023-11-19T01:17:15;2.35;;;1.80;;
8887;SDS011;4480;52.370;9.748;2023-11-19T01:19:42;1.92;;;1.80;;
8887;SDS011;4480;52.370;9.748;2023-11-19T01:22:09;2.92;;;1.92;;
8887;SDS011;4480;52.370;9.748;2023-11-19T01:24:35;2.70;;;1.80;;
8887;SDS011;4480;52.370;9.748;2023-11-19T01:27:02;1.67;;;1.50;;
8887;SDS011;4480;52.370;9.748;2023-11-19T01:29:29;1.98;;;1.85;;
8887;SDS011;4480;52.370;9.748;2023-11-19T01:31:57;1.65;;;1.55;;
8887;SDS011;4480;52.370;9.748;2023-11-19T01:34:24;1.70;;;1.30;;
8887;SDS011;4480;52.370;9.748;2023-11-19T01:36:51;2.17;;;1.60;;
8887;SDS011;4480;52.370;9.748;2023-11-19T01:39:18;1.85;;;1.70;;
8887;SDS011;4480;52.370;9.748;2023-11-19T01:41:45;1.38;;;1.27;;
8887;SDS011;4480;52.370;9.748;2023-11-19T01:44:11;2.60;;;1.42;;
8887;SDS011;4480;52.370;9.748;2023-11-19T01:46:39;1.30;;;1.20;;
8887;SDS011;4480;52.370;9.748;2023-11-19T01:49:09;1.30;;;1.20;;
8887;SDS011;4480;52.370;9.748;2023-11-19T01:51:36;2.30;;;1.60;;
8887;SDS011;4480;52.370;9.748;2023-11-19T01:54:05;1.88;;;1.67;;
8887;SDS011;4480;52.370;9.748;2023-11-19T01:56:33;3.15;;;1.42;;
8887;SDS011;4480;52.370;9.748;2023-11-19T01:59:00;4.18;;;1.40;;
8887;SDS011;4480;52.370;9.748;2023-11-19T02:01:28;1.60;;;1.50;;
8887;SDS011;4480;52.370;9.748;2023-11-19T02:03:57;1.88;;;1.35;;
8887;SDS011;4480;52.370;9.748;2023-11-19T02:06:26;1.80;;;1.70;;
8887;SDS011;4480;52.370;9.748;2023-11-19T02:08:53;1.30;;;1.15;;
8887;SDS011;4480;52.370;9.748;2023-11-19T02:11:20;1.35;;;1.25;;
8887;SDS011;4480;52.370;9.748;2023-11-19T02:13:47;1.30;;;1.20;;
8887;SDS011;4480;52.370;9.748;2023-11-19T02:16:14;1.30;;;1.10;;
8887;SDS011;4480;52.370;9.748;2023-11-19T02:18:40;1.25;;;1.10;;
8887;SDS011;4480;52.370;9.748;2023-11-19T02:21:08;3.63;;;1.30;;
8887;SDS011;4480;52.370;9.748;2023-11-19T02:23:37;1.38;;;1.27;;
8887;SDS011;4480;52.370;9.748;2023-11-19T02:26:07;1.10;;;1.00;;
8887;SDS011;4480;52.370;9.748;2023-11-19T02:28:40;3.17;;;1.30;;
8887;SDS011;4480;52.370;9.748;2023-11-19T02:31:08;0.93;;;0.90;;
8887;SDS011;4480;52.370;9.748;2023-11-19T02:33:35;0.80;;;0.80;;
8887;SDS011;4480;52.370;9.748;2023-11-19T02:36:02;0.80;;;0.80;;
8887;SDS011;4480;52.370;9.748;2023-11-19T02:38:30;1.20;;;0.80;;
8887;SDS011;4480;52.370;9.748;2023-11-19T02:40:56;0.70;;;0.70;;
8887;SDS011;4480;52.370;9.748;2023-11-19T02:43:23;0.85;;;0.80;;
8887;SDS011;4480;52.370;9.748;2023-11-19T02:45:51;1.20;;;1.00;;
8887;SDS011;4480;52.370;9.748;2023-11-19T02:48:20;1.30;;;0.93;;
8887;SDS011;4480;52.370;9.748;2023-11-19T02:50:47;1.10;;;1.00;;
8887;SDS011;4480;52.370;9.748;2023-11-19T02:53:14;0.85;;;0.77;;
8887;SDS011;4480;52.370;9.748;2023-11-19T02:55:41;1.02;;;0.93;;
8887;SDS011;4480;52.370;9.748;2023-11-19T02:58:15;1.10;;;1.00;;
8887;SDS011;4480;52.370;9.748;2023-11-19T03:00:48;1.00;;;0.90;;
8887;SDS011;4480;52.370;9.748;2023-11-19T03:03:23;1.23;;;1.05;;
8887;SDS011;4480;52.370;9.748;2023-11-19T03:05:54;1.15;;;0.93;;
8887;SDS011;4480;52.370;9.748;2023-11-19T03:08:20;0.80;;;0.77;;
8887;SDS011;4480;52.370;9.748;2023-11-19T03:10:48;0.98;;;0.93;;
8887;SDS011;4480;52.370;9.748;2023-11-19T03:13:15;0.93;;;0.90;;
8887;SDS011;4480;52.370;9.748;2023-11-19T03:15:43;0.70;;;0.60;;
8887;SDS011;4480;52.370;9.748;2023-11-19T03:18:09;2.67;;;0.85;;
8887;SDS011;4480;52.370;9.748;2023-11-19T03:20:38;2.17;;;1.00;;
8887;SDS011;4480;52.370;9.748;2023-11-19T03:23:05;1.20;;;1.10;;
8887;SDS011;4480;52.370;9.748;2023-11-19T03:25:31;2.20;;;1.05;;
8887;SDS011;4480;52.370;9.748;2023-11-19T03:27:59;2.03;;;0.90;;
8887;SDS011;4480;52.370;9.748;2023-11-19T03:30:26;1.08;;;0.98;;
8887;SDS011;4480;52.370;9.748;2023-11-19T03:32:54;1.25;;;1.00;;
8887;SDS011;4480;52.370;9.748;2023-11-19T03:35:21;1.25;;;1.15;;
8887;SDS011;4480;52.370;9.748;2023-11-19T03:37:49;1.45;;;1.20;;
8887;SDS011;4480;52.370;9.748;2023-11-19T03:40:16;1.20;;;0.80;;
8887;SDS011;4480;52.370;9.748;2023-11-19T03:42:44;1.10;;;1.00;;
8887;SDS011;4480;52.370;9.748;2023-11-19T03:45:10;0.90;;;0.80;;
8887;SDS011;4480;52.370;9.748;2023-11-19T03:47:37;1.10;;;1.00;;
8887;SDS011;4480;52.370;9.748;2023-11-19T03:50:04;1.20;;;1.10;;
8887;SDS011;4480;52.370;9.748;2023-11-19T03:52:32;1.40;;;1.30;;
8887;SDS011;4480;52.370;9.748;2023-11-19T03:55:00;1.55;;;1.30;;
8887;SDS011;4480;52.370;9.748;2023-11-19T03:57:28;1.27;;;1.17;;
8887;SDS011;4480;52.370;9.748;2023-11-19T03:59:54;1.70;;;1.50;;
8887;SDS011;4480;52.370;9.748;2023-11-19T04:02:23;1.52;;;1.40;;
8887;SDS011;4480;52.370;9.748;2023-11-19T04:04:52;1.75;;;1.65;;
8887;SDS011;4480;52.370;9.748;2023-11-19T04:07:19;1.65;;;1.40;;
8887;SDS011;4480;52.370;9.748;2023-11-19T04:12:31;2.75;;;1.65;;
8887;SDS011;4480;52.370;9.748;2023-11-19T04:14:58;1.50;;;1.40;;
8887;SDS011;4480;52.370;9.748;2023-11-19T04:17:24;2.80;;;2.20;;
8887;SDS011;4480;52.370;9.748;2023-11-19T04:19:51;2.03;;;1.92;;
8887;SDS011;4480;52.370;9.748;2023-11-19T04:22:18;2.15;;;1.75;;
8887;SDS011;4480;52.370;9.748;2023-11-19T04:24:50;3.75;;;2.00;;
8887;SDS011;4480;52.370;9.748;2023-11-19T04:27:18;3.13;;;2.05;;
8887;SDS011;4480;52.370;9.748;2023-11-19T04:29:46;3.47;;;2.20;;
8887;SDS011;4480;52.370;9.748;2023-11-19T04:32:13;2.28;;;2.08;;
8887;SDS011;4480;52.370;9.748;2023-11-19T04:34:40;2.40;;;2.20;;
8887;SDS011;4480;52.370;9.748;2023-11-19T04:37:07;3.08;;;2.28;;
8887;SDS011;4480;52.370;9.748;2023-11-19T04:39:34;2.22;;;2.03;;
8887;SDS011;4480;52.370;9.748;2023-11-19T04:42:02;2.90;;;2.67;;
8887;SDS011;4480;52.370;9.748;2023-11-19T04:44:31;3.10;;;2.67;;
8887;SDS011;4480;52.370;9.748;2023-11-19T04:46:59;2.83;;;2.43;;
8887;SDS011;4480;52.370;9.748;2023-11-19T04:49:26;3.58;;;2.70;;
8887;SDS011;4480;52.370;9.748;2023-11-19T04:51:53;3.17;;;2.87;;
8887;SDS011;4480;52.370;9.748;2023-11-19T04:54:20;6.07;;;3.35;;
8887;SDS011;4480;52.370;9.748;2023-11-19T04:56:46;4.57;;;3.23;;
8887;SDS011;4480;52.370;9.748;2023-11-19T04:59:13;5.37;;;3.23;;
8887;SDS011;4480;52.370;9.748;2023-11-19T05:01:40;4.70;;;3.85;;
8887;SDS011;4480;52.370;9.748;2023-11-19T05:04:08;3.80;;;3.50;;
8887;SDS011;4480;52.370;9.748;2023-11-19T05:06:35;4.80;;;3.53;;
8887;SDS011;4480;52.370;9.748;2023-11-19T05:09:03;5.83;;;3.80;;
8887;SDS011;4480;52.370;9.748;2023-11-19T05:11:32;4.27;;;3.87;;
8887;SDS011;4480;52.370;9.748;2023-11-19T05:13:59;7.00;;;4.80;;
8887;SDS011;4480;52.370;9.748;2023-11-19T05:16:26;5.27;;;4.77;;
8887;SDS011;4480;52.370;9.748;2023-11-19T05:18:52;6.37;;;4.73;;
8887;SDS011;4480;52.370;9.748;2023-11-19T05:21:21;7.10;;;4.10;;
8887;SDS011;4480;52.370;9.748;2023-11-19T05:23:48;5.10;;;4.40;;
8887;SDS011;4480;52.370;9.748;2023-11-19T05:26:18;5.57;;;5.07;;
8887;SDS011;4480;52.370;9.748;2023-11-19T05:28:46;6.37;;;5.23;;
8887;SDS011;4480;52.370;9.748;2023-11-19T05:31:14;6.37;;;5.77;;
8887;SDS011;4480;52.370;9.748;2023-11-19T05:33:42;8.57;;;6.50;;
8887;SDS011;4480;52.370;9.748;2023-11-19T05:36:10;7.60;;;5.90;;
8887;SDS011;4480;52.370;9.748;2023-11-19T05:38:39;8.93;;;6.53;;
8887;SDS011;4480;52.370;9.748;2023-11-19T05:41:06;10.73;;;6.97;;
8887;SDS011;4480;52.370;9.748;2023-11-19T05:43:33;9.20;;;6.77;;
8887;SDS011;4480;52.370;9.748;2023-11-19T05:46:00;8.83;;;7.23;;
8887;SDS011;4480;52.370;9.748;2023-11-19T05:48:27;11.83;;;8.07;;
8887;SDS011;4480;52.370;9.748;2023-11-19T05:50:54;9.43;;;7.87;;
8887;SDS011;4480;52.370;9.748;2023-11-19T05:53:21;18.83;;;10.17;;
8887;SDS011;4480;52.370;9.748;2023-11-19T05:55:49;11.13;;;8.93;;
8887;SDS011;4480;52.370;9.748;2023-11-19T05:58:20;10.63;;;8.20;;
8887;SDS011;4480;52.370;9.748;2023-11-19T06:00:50;16.73;;;9.80;;
8887;SDS011;4480;52.370;9.748;2023-11-19T06:03:17;14.80;;;9.40;;
8887;SDS011;4480;52.370;9.748;2023-11-19T06:05:44;18.60;;;10.00;;
8887;SDS011;4480;52.370;9.748;2023-11-19T06:08:11;12.07;;;8.77;;
8887;SDS011;4480;52.370;9.748;2023-11-19T06:10:39;16.43;;;10.53;;
8887;SDS011;4480;52.370;9.748;2023-11-19T06:13:07;14.73;;;10.40;;
8887;SDS011;4480;52.370;9.748;2023-11-19T06:15:35;16.13;;;10.53;;
8887;SDS011;4480;52.370;9.748;2023-11-19T06:18:02;14.83;;;9.80;;
8887;SDS011;4480;52.370;9.748;2023-11-19T06:20:29;15.10;;;9.60;;
8887;SDS011;4480;52.370;9.748;2023-11-19T06:22:57;12.03;;;9.33;;
8887;SDS011;4480;52.370;9.748;2023-11-19T06:25:24;11.57;;;8.83;;
8887;SDS011;4480;52.370;9.748;2023-11-19T06:27:51;14.60;;;9.23;;
8887;SDS011;4480;52.370;9.748;2023-11-19T06:30:20;12.07;;;7.80;;
8887;SDS011;4480;52.370;9.748;2023-11-19T06:32:46;12.13;;;8.40;;
8887;SDS011;4480;52.370;9.748;2023-11-19T06:35:13;16.00;;;9.10;;
8887;SDS011;4480;52.370;9.748;2023-11-19T06:37:40;10.13;;;7.20;;
8887;SDS011;4480;52.370;9.748;2023-11-19T06:40:07;14.87;;;6.57;;
8887;SDS011;4480;52.370;9.748;2023-11-19T06:42:35;10.20;;;6.20;;
8887;SDS011;4480;52.370;9.748;2023-11-19T06:45:02;8.43;;;6.60;;
8887;SDS011;4480;52.370;9.748;2023-11-19T06:47:31;12.60;;;6.10;;
8887;SDS011;4480;52.370;9.748;2023-11-19T06:49:57;15.80;;;6.37;;
8887;SDS011;4480;52.370;9.748;2023-11-19T06:52:24;12.70;;;6.13;;
8887;SDS011;4480;52.370;9.748;2023-11-19T06:54:51;11.50;;;5.03;;
8887;SDS011;4480;52.370;9.748;2023-11-19T06:57:18;9.67;;;5.27;;
8887;SDS011;4480;52.370;9.748;2023-11-19T06:59:45;7.57;;;5.87;;
8887;SDS011;4480;52.370;9.748;2023-11-19T07:02:12;15.50;;;5.97;;
8887;SDS011;4480;52.370;9.748;2023-11-19T07:04:40;10.80;;;6.40;;
8887;SDS011;4480;52.370;9.748;2023-11-19T07:07:07;12.13;;;5.33;;
8887;SDS011;4480;52.370;9.748;2023-11-19T07:09:34;6.57;;;4.70;;
8887;SDS011;4480;52.370;9.748;2023-11-19T07:12:02;8.73;;;4.17;;
8887;SDS011;4480;52.370;9.748;2023-11-19T07:14:30;10.37;;;5.00;;
8887;SDS011;4480;52.370;9.748;2023-11-19T07:16:56;12.67;;;4.40;;
8887;SDS011;4480;52.370;9.748;2023-11-19T07:19:23;15.63;;;6.00;;
8887;SDS011;4480;52.370;9.748;2023-11-19T07:21:51;13.20;;;4.83;;
8887;SDS011;4480;52.370;9.748;2023-11-19T07:24:19;12.40;;;4.93;;
8887;SDS011;4480;52.370;9.748;2023-11-19T07:26:46;15.87;;;4.20;;
8887;SDS011;4480;52.370;9.748;2023-11-19T07:29:13;10.33;;;4.20;;
8887;SDS011;4480;52.370;9.748;2023-11-19T07:31:41;13.30;;;4.20;;
8887;SDS011;4480;52.370;9.748;2023-11-19T07:34:09;16.10;;;4.37;;
8887;SDS011;4480;52.370;9.748;2023-11-19T07:36:36;8.23;;;3.67;;
8887;SDS011;4480;52.370;9.748;2023-11-19T07:39:05;14.93;;;4.43;;
8887;SDS011;4480;52.370;9.748;2023-11-19T07:41:32;14.83;;;4.10;;
8887;SDS011;4480;52.370;9.748;2023-11-19T07:43:59;16.40;;;4.37;;
8887;SDS011;4480;52.370;9.748;2023-11-19T07:46:26;13.27;;;4.33;;
8887;SDS011;4480;52.370;9.748;2023-11-19T07:48:53;14.17;;;3.80;;
8887;SDS011;4480;52.370;9.748;2023-11-19T07:51:20;14.97;;;4.40;;
8887;SDS011;4480;52.370;9.748;2023-11-19T07:53:46;11.23;;;4.17;;
8887;SDS011;4480;52.370;9.748;2023-11-19T07:56:15;20.13;;;4.33;;
8887;SDS011;4480;52.370;9.748;2023-11-19T07:58:42;14.63;;;4.20;;
8887;SDS011;4480;52.370;9.748;2023-11-19T08:01:09;14.93;;;4.30;;
8887;SDS011;4480;52.370;9.748;2023-11-19T08:03:35;13.00;;;3.53;;
8887;SDS011;4480;52.370;9.748;2023-11-19T08:06:03;11.30;;;3.93;;
8887;SDS011;4480;52.370;9.748;2023-11-19T08:08:30;17.97;;;3.93;;
8887;SDS011;4480;52.370;9.748;2023-11-19T08:10:58;20.10;;;4.53;;
8887;SDS011;4480;52.370;9.748;2023-11-19T08:13:26;14.83;;;3.90;;
8887;SDS011;4480;52.370;9.748;2023-11-19T08:15:53;13.00;;;4.70;;
8887;SDS011;4480;52.370;9.748;2023-11-19T08:18:20;19.97;;;4.40;;
8887;SDS011;4480;52.370;9.748;2023-11-19T08:20:47;11.33;;;5.73;;
8887;SDS011;4480;52.370;9.748;2023-11-19T08:23:17;15.67;;;4.30;;
8887;SDS011;4480;52.370;9.748;2023-11-19T08:25:44;13.97;;;4.70;;
8887;SDS011;4480;52.370;9.748;2023-11-19T08:28:11;11.90;;;4.40;;
8887;SDS011;4480;52.370;9.748;2023-11-19T08:30:39;17.80;;;4.50;;
8887;SDS011;4480;52.370;9.748;2023-11-19T08:33:06;12.33;;;3.90;;
8887;SDS011;4480;52.370;9.748;2023-11-19T08:35:33;15.63;;;3.90;;
8887;SDS011;4480;52.370;9.748;2023-11-19T08:37:59;16.77;;;4.73;;
8887;SDS011;4480;52.370;9.748;2023-11-19T08:40:27;22.17;;;4.77;;
8887;SDS011;4480;52.370;9.748;2023-11-19T08:42:54;23.53;;;4.73;;
8887;SDS011;4480;52.370;9.748;2023-11-19T08:45:21;13.20;;;4.80;;
8887;SDS011;4480;52.370;9.748;2023-11-19T08:47:49;18.37;;;4.40;;
8887;SDS011;4480;52.370;9.748;2023-11-19T08:50:16;16.57;;;4.60;;
8887;SDS011;4480;52.370;9.748;2023-11-19T08:52:43;18.80;;;4.20;;
8887;SDS011;4480;52.370;9.748;2023-11-19T08:55:10;18.20;;;5.13;;
8887;SDS011;4480;52.370;9.748;2023-11-19T08:57:38;18.50;;;4.40;;
8887;SDS011;4480;52.370;9.748;2023-11-19T09:00:06;18.33;;;4.07;;
8887;SDS011;4480;52.370;9.748;2023-11-19T09:02:33;18.93;;;4.67;;
8887;SDS011;4480;52.370;9.748;2023-11-19T09:05:03;18.73;;;5.07;;
8887;SDS011;4480;52.370;9.748;2023-11-19T09:07:31;14.73;;;4.17;;
8887;SDS011;4480;52.370;9.748;2023-11-19T09:09:57;13.30;;;4.40;;
8887;SDS011;4480;52.370;9.748;2023-11-19T09:12:24;14.10;;;3.93;;
8887;SDS011;4480;52.370;9.748;2023-11-19T09:14:51;20.03;;;5.57;;
8887;SDS011;4480;52.370;9.748;2023-11-19T09:17:18;15.30;;;4.03;;
8887;SDS011;4480;52.370;9.748;2023-11-19T09:19:44;18.63;;;5.17;;
8887;SDS011;4480;52.370;9.748;2023-11-19T09:22:12;18.13;;;4.53;;
8887;SDS011;4480;52.370;9.748;2023-11-19T09:24:39;14.50;;;4.83;;
8887;SDS011;4480;52.370;9.748;2023-11-19T09:27:06;18.10;;;4.50;;
8887;SDS011;4480;52.370;9.748;2023-11-19T09:29:33;14.87;;;4.00;;
8887;SDS011;4480;52.370;9.748;2023-11-19T09:32:00;21.50;;;5.00;;
8887;SDS011;4480;52.370;9.748;2023-11-19T09:34:26;13.37;;;3.90;;
8887;SDS011;4480;52.370;9.748;2023-11-19T09:36:54;16.40;;;5.07;;
8887;SDS011;4480;52.370;9.748;2023-11-19T09:39:22;16.17;;;5.67;;
8887;SDS011;4480;52.370;9.748;2023-11-19T09:41:50;15.57;;;3.70;;
8887;SDS011;4480;52.370;9.748;2023-11-19T09:44:17;12.97;;;4.33;;
8887;SDS011;4480;52.370;9.748;2023-11-19T09:46:44;12.83;;;4.53;;
8887;SDS011;4480;52.370;9.748;2023-11-19T09:49:14;16.80;;;3.83;;
8887;SDS011;4480;52.370;9.748;2023-11-19T09:51:43;14.87;;;4.23;;
8887;SDS011;4480;52.370;9.748;2023-11-19T09:54:10;17.00;;;4.60;;
8887;SDS011;4480;52.370;9.748;2023-11-19T09:56:39;15.27;;;5.40;;
8887;SDS011;4480;52.370;9.748;2023-11-19T09:59:06;30.40;;;4.77;;
8887;SDS011;4480;52.370;9.748;2023-11-19T10:01:35;15.97;;;3.90;;
8887;SDS011;4480;52.370;9.748;2023-11-19T10:04:04;16.10;;;4.70;;
8887;SDS011;4480;52.370;9.748;2023-11-19T10:06:32;20.30;;;4.47;;
8887;SDS011;4480;52.370;9.748;2023-11-19T10:08:59;16.13;;;4.27;;
8887;SDS011;4480;52.370;9.748;2023-11-19T10:11:26;20.90;;;4.60;;
8887;SDS011;4480;52.370;9.748;2023-11-19T10:13:54;14.97;;;4.73;;
8887;SDS011;4480;52.370;9.748;2023-11-19T10:16:27;14.43;;;4.17;;
8887;SDS011;4480;52.370;9.748;2023-11-19T10:18:55;19.13;;;4.63;;
8887;SDS011;4480;52.370;9.748;2023-11-19T10:21:22;12.03;;;3.80;;
8887;SDS011;4480;52.370;9.748;2023-11-19T10:23:49;16.70;;;3.90;;
8887;SDS011;4480;52.370;9.748;2023-11-19T10:26:17;16.23;;;4.50;;
8887;SDS011;4480;52.370;9.748;2023-11-19T10:28:45;14.60;;;4.00;;
8887;SDS011;4480;52.370;9.748;2023-11-19T10:31:14;15.70;;;3.97;;
8887;SDS011;4480;52.370;9.748;2023-11-19T10:33:41;14.80;;;4.00;;
8887;SDS011;4480;52.370;9.748;2023-11-19T10:36:10;12.43;;;4.70;;
8887;SDS011;4480;52.370;9.748;2023-11-19T10:38:38;10.30;;;3.70;;
8887;SDS011;4480;52.370;9.748;2023-11-19T10:41:05;15.30;;;5.63;;
8887;SDS011;4480;52.370;9.748;2023-11-19T10:43:42;13.97;;;3.63;;
8887;SDS011;4480;52.370;9.748;2023-11-19T10:46:10;13.63;;;3.13;;
8887;SDS011;4480;52.370;9.748;2023-11-19T10:48:39;21.47;;;5.40;;
8887;SDS011;4480;52.370;9.748;2023-11-19T10:51:07;15.97;;;4.63;;
8887;SDS011;4480;52.370;9.748;2023-11-19T10:53:35;16.30;;;3.60;;
8887;SDS011;4480;52.370;9.748;2023-11-19T10:56:04;16.77;;;4.27;;
8887;SDS011;4480;52.370;9.748;2023-11-19T10:58:36;15.13;;;4.20;;
8887;SDS011;4480;52.370;9.748;2023-11-19T11:01:06;14.30;;;3.97;;
8887;SDS011;4480;52.370;9.748;2023-11-19T11:03:40;12.80;;;3.47;;
8887;SDS011;4480;52.370;9.748;2023-11-19T11:06:08;15.17;;;4.10;;
8887;SDS011;4480;52.370;9.748;2023-11-19T11:08:36;11.50;;;3.67;;
8887;SDS011;4480;52.370;9.748;2023-11-19T11:11:04;14.07;;;3.60;;
8887;SDS011;4480;52.370;9.748;2023-11-19T11:13:32;14.83;;;4.87;;
8887;SDS011;4480;52.370;9.748;2023-11-19T11:15:59;11.23;;;4.03;;
8887;SDS011;4480;52.370;9.748;2023-11-19T11:18:29;15.47;;;4.80;;
8887;SDS011;4480;52.370;9.748;2023-11-19T11:20:58;17.17;;;4.50;;
8887;SDS011;4480;52.370;9.748;2023-11-19T11:23:46;15.73;;;4.53;;
8887;SDS011;4480;52.370;9.748;2023-11-19T11:26:35;13.70;;;4.53;;
8887;SDS011;4480;52.370;9.748;2023-11-19T11:29:24;15.90;;;5.67;;
8887;SDS011;4480;52.370;9.748;2023-11-19T11:32:00;14.17;;;4.47;;
8887;SDS011;4480;52.370;9.748;2023-11-19T11:37:29;11.17;;;4.10;;
8887;SDS011;4480;52.370;9.748;2023-11-19T11:39:58;17.23;;;3.60;;
8887;SDS011;4480;52.370;9.748;2023-11-19T11:42:30;15.70;;;5.70;;
8887;SDS011;4480;52.370;9.748;2023-11-19T11:45:01;11.37;;;3.90;;
8887;SDS011;4480;52.370;9.748;2023-11-19T11:50:34;16.97;;;4.87;;
8887;SDS011;4480;52.370;9.748;2023-11-19T11:53:15;15.20;;;4.20;;
8887;SDS011;4480;52.370;9.748;2023-11-19T11:55:52;14.67;;;4.40;;
8887;SDS011;4480;52.370;9.748;2023-11-19T11:58:28;19.80;;;4.73;;
8887;SDS011;4480;52.370;9.748;2023-11-19T12:00:58;17.30;;;4.20;;
8887;SDS011;4480;52.370;9.748;2023-11-19T12:03:27;17.73;;;4.87;;
8887;SDS011;4480;52.370;9.748;2023-11-19T12:05:56;17.70;;;6.20;;
8887;SDS011;4480;52.370;9.748;2023-11-19T12:08:28;19.40;;;5.13;;
8887;SDS011;4480;52.370;9.748;2023-11-19T12:10:57;14.47;;;5.50;;
8887;SDS011;4480;52.370;9.748;2023-11-19T12:13:25;15.77;;;4.20;;
8887;SDS011;4480;52.370;9.748;2023-11-19T12:16:10;18.57;;;4.70;;
8887;SDS011;4480;52.370;9.748;2023-11-19T12:18:38;14.77;;;4.33;;
8887;SDS011;4480;52.370;9.748;2023-11-19T12:21:06;12.13;;;4.20;;
8887;SDS011;4480;52.370;9.748;2023-11-19T12:23:36;14.13;;;4.53;;
8887;SDS011;4480;52.370;9.748;2023-11-19T12:26:30;14.27;;;4.53;;
8887;SDS011;4480;52.370;9.748;2023-11-19T12:28:58;22.30;;;4.80;;
8887;SDS011;4480;52.370;9.748;2023-11-19T12:31:26;17.20;;;4.83;;
8887;SDS011;4480;52.370;9.748;2023-11-19T12:33:52;17.93;;;4.83;;
8887;SDS011;4480;52.370;9.748;2023-11-19T12:36:20;13.20;;;4.37;;
8887;SDS011;4480;52.370;9.748;2023-11-19T12:38:48;15.10;;;4.10;;
8887;SDS011;4480;52.370;9.748;2023-11-19T12:41:16;14.67;;;4.43;;
8887;SDS011;4480;52.370;9.748;2023-11-19T12:43:45;14.03;;;5.00;;
8887;SDS011;4480;52.370;9.748;2023-11-19T12:46:18;19.63;;;4.33;;
8887;SDS011;4480;52.370;9.748;2023-11-19T12:48:46;19.07;;;5.50;;
8887;SDS011;4480;52.370;9.748;2023-11-19T12:51:13;14.47;;;5.43;;
8887;SDS011;4480;52.370;9.748;2023-11-19T12:53:47;15.17;;;3.97;;
8887;SDS011;4480;52.370;9.748;2023-11-19T12:56:18;16.17;;;5.40;;
8887;SDS011;4480;52.370;9.748;2023-11-19T12:58:44;12.03;;;3.20;;
8887;SDS011;4480;52.370;9.748;2023-11-19T13:01:15;14.27;;;4.43;;
8887;SDS011;4480;52.370;9.748;2023-11-19T13:03:43;18.70;;;4.60;;
8887;SDS011;4480;52.370;9.748;2023-11-19T13:06:10;21.23;;;5.50;;
8887;SDS011;4480;52.370;9.748;2023-11-19T13:08:39;11.87;;;4.07;;
8887;SDS011;4480;52.370;9.748;2023-11-19T13:11:08;12.10;;;5.00;;
8887;SDS011;4480;52.370;9.748;2023-11-19T13:13:54;14.33;;;4.47;;
8887;SDS011;4480;52.370;9.748;2023-11-19T13:16:21;13.53;;;3.80;;
8887;SDS011;4480;52.370;9.748;2023-11-19T13:18:48;14.57;;;4.90;;
8887;SDS011;4480;52.370;9.748;2023-11-19T13:21:15;14.43;;;4.33;;
8887;SDS011;4480;52.370;9.748;2023-11-19T13:23:41;15.43;;;4.67;;
8887;SDS011;4480;52.370;9.748;2023-11-19T13:26:10;15.70;;;4.63;;
8887;SDS011;4480;52.370;9.748;2023-11-19T13:28:37;17.00;;;4.30;;
8887;SDS011;4480;52.370;9.748;2023-11-19T13:31:04;12.47;;;4.33;;
8887;SDS011;4480;52.370;9.748;2023-11-19T13:33:31;13.37;;;4.50;;
8887;SDS011;4480;52.370;9.748;2023-11-19T13:35:58;15.93;;;4.53;;
8887;SDS011;4480;52.370;9.748;2023-11-19T13:38:30;21.17;;;6.17;;
8887;SDS011;4480;52.370;9.748;2023-11-19T13:40:57;13.67;;;5.53;;
8887;SDS011;4480;52.370;9.748;2023-11-19T13:43:25;20.03;;;5.30;;
8887;SDS011;4480;52.370;9.748;2023-11-19T13:45:53;17.40;;;5.70;;
8887;SDS011;4480;52.370;9.748;2023-11-19T13:48:19;9.97;;;4.27;;
8887;SDS011;4480;52.370;9.748;2023-11-19T13:50:46;18.40;;;4.90;;
8887;SDS011;4480;52.370;9.748;2023-11-19T13:53:13;16.83;;;5.27;;
8887;SDS011;4480;52.370;9.748;2023-11-19T13:55:41;20.33;;;4.80;;
8887;SDS011;4480;52.370;9.748;2023-11-19T13:58:08;16.83;;;4.47;;
8887;SDS011;4480;52.370;9.748;2023-11-19T14:00:36;15.00;;;4.70;;
8887;SDS011;4480;52.370;9.748;2023-11-19T14:03:03;17.27;;;5.10;;
8887;SDS011;4480;52.370;9.748;2023-11-19T14:05:30;16.30;;;4.53;;
8887;SDS011;4480;52.370;9.748;2023-11-19T14:07:57;15.27;;;4.53;;
8887;SDS011;4480;52.370;9.748;2023-11-19T14:10:24;18.10;;;4.47;;
8887;SDS011;4480;52.370;9.748;2023-11-19T14:12:50;19.50;;;5.67;;
8887;SDS011;4480;52.370;9.748;2023-11-19T14:15:17;17.60;;;5.40;;
8887;SDS011;4480;52.370;9.748;2023-11-19T14:17:46;13.20;;;4.90;;
8887;SDS011;4480;52.370;9.748;2023-11-19T14:20:12;17.67;;;5.87;;
8887;SDS011;4480;52.370;9.748;2023-11-19T14:22:40;13.30;;;4.70;;
8887;SDS011;4480;52.370;9.748;2023-11-19T14:25:08;13.43;;;4.53;;
8887;SDS011;4480;52.370;9.748;2023-11-19T14:27:36;11.43;;;3.93;;
8887;SDS011;4480;52.370;9.748;2023-11-19T14:30:04;16.47;;;4.20;;
8887;SDS011;4480;52.370;9.748;2023-11-19T14:32:31;17.13;;;4.63;;
8887;SDS011;4480;52.370;9.748;2023-11-19T14:34:59;11.40;;;3.83;;
8887;SDS011;4480;52.370;9.748;2023-11-19T14:37:27;19.60;;;5.37;;
8887;SDS011;4480;52.370;9.748;2023-11-19T14:39:53;18.47;;;5.10;;
8887;SDS011;4480;52.370;9.748;2023-11-19T14:42:20;21.43;;;4.73;;
8887;SDS011;4480;52.370;9.748;2023-11-19T14:44:47;13.27;;;4.37;;
8887;SDS011;4480;52.370;9.748;2023-11-19T14:47:14;13.70;;;4.20;;
8887;SDS011;4480;52.370;9.748;2023-11-19T14:49:41;14.63;;;4.13;;
8887;SDS011;4480;52.370;9.748;2023-11-19T14:52:09;17.37;;;4.10;;
8887;SDS011;4480;52.370;9.748;2023-11-19T14:54:36;14.50;;;4.10;;
8887;SDS011;4480;52.370;9.748;2023-11-19T14:57:03;11.17;;;3.90;;
8887;SDS011;4480;52.370;9.748;2023-11-19T14:59:30;16.33;;;3.70;;
8887;SDS011;4480;52.370;9.748;2023-11-19T15:01:58;14.30;;;4.67;;
8887;SDS011;4480;52.370;9.748;2023-11-19T15:04:25;11.30;;;4.20;;
8887;SDS011;4480;52.370;9.748;2023-11-19T15:06:51;15.60;;;4.27;;
8887;SDS011;4480;52.370;9.748;2023-11-19T15:09:19;18.10;;;5.50;;
8887;SDS011;4480;52.370;9.748;2023-11-19T15:11:46;10.97;;;3.83;;
8887;SDS011;4480;52.370;9.748;2023-11-19T15:14:13;18.97;;;4.53;;
8887;SDS011;4480;52.370;9.748;2023-11-19T15:16:41;13.93;;;5.10;;
8887;SDS011;4480;52.370;9.748;2023-11-19T15:19:08;18.20;;;4.40;;
8887;SDS011;4480;52.370;9.748;2023-11-19T15:21:35;24.00;;;5.90;;